Time;durP1;ratioP1;P1;durP2;ratioP2;P2;SDS_P1;SDS_P2;PMS_P1;PMS_P2;Temp;Humidity;BMP_temperature;BMP_pressure;BME280_temperature;BME280_humidity;BME280_pressure;Samples;Min_cycle;Max_cycle;Signal;HPM_P1;HPM_P2
2023/09/08 00:00:03;;;;;;;;;;;;;;;23.85;98.23;98228.06;5063315;28;19970;-77
2023/09/08 00:02:33;;;;;;;;;;;;;;;23.83;97.34;98222.19;5063863;28;19925;-77
2023/09/08 00:04:59;;;;;;;;;;;;;;;23.83;96.50;98230.38;5059748;28;19948;-77
2023/09/08 00:07:28;;;;;;;;;;;;;;;23.81;96.46;98225.25;5059615;28;19921;-77
2023/09/08 00:09:56;;;;;;;;;;;;;;;23.79;95.95;98224.00;5064180;28;19935;-77
2023/09/08 00:12:23;;;;;;;;;;;;;;;23.78;95.83;98222.38;5064367;28;19952;-76
2023/09/08 00:14:51;;;;;;;;;;;;;;;23.77;95.41;98223.53;5059663;28;19925;-76
2023/09/08 00:17:18;;;;;;;;;;;;;;;23.74;95.19;98221.50;5064588;28;19965;-76
2023/09/08 00:19:44;;;;;;;;;;;;;;;23.73;94.71;98228.09;5061939;28;19929;-76
2023/09/08 00:22:10;;;;;;;;;;;;;;;23.70;94.64;98217.84;5064122;28;19992;-76
2023/09/08 00:24:36;;;;;;;;;;;;;;;23.72;94.23;98221.03;5062142;28;19932;-77
2023/09/08 00:27:04;;;;;;;;;;;;;;;23.69;94.33;98227.16;5060487;28;19940;-77
2023/09/08 00:29:30;;;;;;;;;;;;;;;23.67;94.56;98221.28;5076592;28;19925;-77
2023/09/08 00:31:58;;;;;;;;;;;;;;;23.65;94.54;98216.94;5065022;28;19924;-77
2023/09/08 00:34:24;;;;;;;;;;;;;;;23.64;94.27;98215.34;5063803;28;19954;-77
2023/09/08 00:36:52;;;;;;;;;;;;;;;23.61;94.50;98216.03;5067691;28;19921;-77
2023/09/08 00:39:18;;;;;;;;;;;;;;;23.60;94.53;98216.38;5051960;28;19932;-77
2023/09/08 00:41:44;;;;;;;;;;;;;;;23.58;94.74;98213.97;5052276;28;19925;-77
2023/09/08 00:44:12;;;;;;;;;;;;;;;23.57;95.20;98215.13;5052015;28;19926;-77
2023/09/08 00:46:39;;;;;;;;;;;;;;;23.55;95.34;98209.19;5063995;28;19932;-77
2023/09/08 00:49:06;;;;;;;;;;;;;;;23.53;95.72;98216.94;5059912;28;19925;-77
2023/09/08 00:51:33;;;;;;;;;;;;;;;23.51;96.34;98221.94;5059751;28;19925;-77
2023/09/08 00:54:16;;;;;;;;;;;;;;;23.50;96.60;98212.16;5063629;28;19984;-77
2023/09/08 00:56:42;;;;;;;;;;;;;;;23.51;96.59;98207.50;5061110;28;19931;-77
2023/09/08 00:59:24;;;;;;;;;;;;;;;23.48;96.83;98205.47;5059897;28;19932;-77
2023/09/08 01:01:53;;;;;;;;;;;;;;;23.46;97.05;98207.72;5059731;28;19967;-77
2023/09/08 01:04:21;;;;;;;;;;;;;;;23.44;97.34;98208.06;5059189;28;19925;-77
2023/09/08 01:06:47;;;;;;;;;;;;;;;23.44;97.26;98207.28;5061383;28;19959;-77
2023/09/08 01:09:14;;;;;;;;;;;;;;;23.42;97.34;98207.63;5063259;28;19968;-77
2023/09/08 01:11:40;;;;;;;;;;;;;;;23.39;97.49;98207.47;5060007;28;19925;-77
2023/09/08 01:14:07;;;;;;;;;;;;;;;23.40;97.42;98204.44;5059394;28;19925;-77
2023/09/08 01:16:33;;;;;;;;;;;;;;;23.36;97.57;98211.69;5067853;28;19925;-77
2023/09/08 01:19:01;;;;;;;;;;;;;;;23.35;97.22;98207.34;5058540;28;19964;-78
2023/09/08 01:21:46;;;;;;;;;;;;;;;23.32;97.48;98207.22;5058694;28;19940;-78
2023/09/08 01:24:24;;;;;;;;;;;;;;;23.33;96.89;98204.19;5062675;28;19936;-78
2023/09/08 01:26:53;;;;;;;;;;;;;;;23.32;96.60;98208.03;5058731;28;20517;-78
2023/09/08 01:29:20;;;;;;;;;;;;;;;23.30;96.77;98210.31;5058732;28;19929;-77
2023/09/08 01:31:46;;;;;;;;;;;;;;;23.27;96.92;98205.53;5060745;28;19924;-77
2023/09/08 01:34:13;;;;;;;;;;;;;;;23.25;96.71;98207.78;5061686;28;19924;-77
2023/09/08 01:36:40;;;;;;;;;;;;;;;23.24;96.73;98217.09;5059107;28;19925;-77
2023/09/08 01:39:06;;;;;;;;;;;;;;;23.23;96.72;98211.97;5059418;28;19933;-77
2023/09/08 01:41:34;;;;;;;;;;;;;;;23.21;96.81;98206.88;5060893;28;19925;-77
2023/09/08 01:44:07;;;;;;;;;;;;;;;23.20;96.79;98209.94;5063884;28;19928;-77
2023/09/08 01:46:34;;;;;;;;;;;;;;;23.19;96.66;98203.69;5071720;28;19944;-77
2023/09/08 01:49:01;;;;;;;;;;;;;;;23.18;96.62;98204.03;5064954;28;19916;-77
2023/09/08 01:51:27;;;;;;;;;;;;;;;23.18;96.40;98201.31;5066232;28;19921;-77
2023/09/08 01:53:54;;;;;;;;;;;;;;;23.17;95.93;98205.16;5069187;28;19920;-77
2023/09/08 01:56:22;;;;;;;;;;;;;;;23.13;96.00;98203.13;5060887;28;19996;-77
2023/09/08 01:59:02;;;;;;;;;;;;;;;23.12;95.93;98203.44;5057260;28;19948;-78
2023/09/08 02:01:33;;;;;;;;;;;;;;;23.10;95.77;98194.81;5058508;28;19925;-77
2023/09/08 02:03:59;;;;;;;;;;;;;;;23.07;95.73;98200.94;5061281;28;19955;-77
2023/09/08 02:06:26;;;;;;;;;;;;;;;23.06;95.24;98191.16;5060955;28;19928;-77
2023/09/08 02:08:52;;;;;;;;;;;;;;;23.03;95.57;98191.84;5058695;28;19964;-77
2023/09/08 02:11:19;;;;;;;;;;;;;;;23.04;95.52;98190.72;5058620;28;19933;-77
2023/09/08 02:13:45;;;;;;;;;;;;;;;23.02;95.15;98198.44;5061243;28;19933;-77
2023/09/08 02:16:15;;;;;;;;;;;;;;;23.02;94.94;98193.00;5058264;28;19925;-77
2023/09/08 02:18:44;;;;;;;;;;;;;;;22.99;94.84;98190.94;5058533;28;19960;-77
2023/09/08 02:21:25;;;;;;;;;;;;;;;22.97;94.79;98183.09;5059897;28;20016;-78
2023/09/08 02:23:52;;;;;;;;;;;;;;;22.98;94.61;98181.16;5058298;28;19932;-77
2023/09/08 02:26:18;;;;;;;;;;;;;;;22.95;95.00;98179.91;5058656;28;19968;-77
2023/09/08 02:28:45;;;;;;;;;;;;;;;22.98;94.73;98181.16;5061191;28;19992;-77
2023/09/08 02:31:12;;;;;;;;;;;;;;;22.93;94.92;98184.13;5061697;28;19932;-77
2023/09/08 02:33:40;;;;;;;;;;;;;;;22.89;95.46;98188.63;5058917;28;19931;-77
2023/09/08 02:36:06;;;;;;;;;;;;;;;22.86;95.60;98183.88;5057160;28;19929;-77
2023/09/08 02:38:33;;;;;;;;;;;;;;;22.84;95.87;98181.47;5058967;28;19933;-77
2023/09/08 02:40:59;;;;;;;;;;;;;;;22.84;95.75;98186.91;5060726;28;19925;-77
2023/09/08 02:43:27;;;;;;;;;;;;;;;22.77;96.03;98185.88;5060407;28;19921;-77
2023/09/08 02:45:53;;;;;;;;;;;;;;;22.73;96.49;98182.22;5073640;28;19929;-77
2023/09/08 02:48:19;;;;;;;;;;;;;;;22.73;96.73;98183.03;5057361;28;19935;-77
2023/09/08 02:50:47;;;;;;;;;;;;;;;22.72;96.64;98183.34;5057466;28;19980;-78
2023/09/08 02:53:14;;;;;;;;;;;;;;;22.73;96.49;98195.84;5057041;28;19925;-78
2023/09/08 02:58:23;;;;;;;;;;;;;;;22.67;96.70;98192.53;5061628;28;19928;-78
2023/09/08 03:00:50;;;;;;;;;;;;;;;22.69;96.45;98184.03;5057093;28;19948;-77
2023/09/08 03:03:19;;;;;;;;;;;;;;;22.70;96.29;98182.91;5056910;28;19929;-77
2023/09/08 03:05:45;;;;;;;;;;;;;;;22.70;96.20;98185.63;5059679;28;20820;-77
2023/09/08 03:08:19;;;;;;;;;;;;;;;22.66;96.35;98179.25;5059867;28;19947;-77
2023/09/08 03:10:45;;;;;;;;;;;;;;;22.64;96.36;98192.38;5058723;28;19933;-77
2023/09/08 03:13:12;;;;;;;;;;;;;;;22.65;96.19;98189.38;5056862;28;19947;-77
2023/09/08 03:15:38;;;;;;;;;;;;;;;22.62;96.16;98189.19;5063103;28;19925;-77
2023/09/08 03:18:05;;;;;;;;;;;;;;;22.62;96.00;98198.16;5061476;28;19967;-76
2023/09/08 03:20:31;;;;;;;;;;;;;;;22.60;96.00;98184.06;5060809;28;19925;-76
2023/09/08 03:25:41;;;;;;;;;;;;;;;22.58;95.77;98195.31;5058402;28;19971;-77
2023/09/08 03:28:08;;;;;;;;;;;;;;;22.57;95.63;98193.72;5076884;28;19947;-77
2023/09/08 03:30:34;;;;;;;;;;;;;;;22.55;95.82;98195.19;5060708;28;19929;-76
2023/09/08 03:33:00;;;;;;;;;;;;;;;22.50;96.30;98193.44;5056715;28;19948;-76
2023/09/08 03:35:41;;;;;;;;;;;;;;;22.46;96.29;98189.81;5059796;28;19944;-77
2023/09/08 03:38:08;;;;;;;;;;;;;;;22.45;96.70;98196.38;5061266;28;19925;-77
2023/09/08 03:40:34;;;;;;;;;;;;;;;22.46;96.38;98194.47;5060714;28;19968;-77
2023/09/08 03:43:02;;;;;;;;;;;;;;;22.43;96.79;98186.97;5058369;28;19921;-77
2023/09/08 03:45:28;;;;;;;;;;;;;;;22.41;96.51;98191.94;5062178;28;19932;-77
2023/09/08 03:47:55;;;;;;;;;;;;;;;22.40;96.62;98190.34;5059816;28;19925;-76
2023/09/08 03:50:21;;;;;;;;;;;;;;;22.40;96.29;98188.44;5060786;28;19925;-77
2023/09/08 03:55:28;;;;;;;;;;;;;;;22.39;95.82;98200.44;5060291;28;19995;-76
2023/09/08 03:57:54;;;;;;;;;;;;;;;22.36;96.32;98192.94;5063601;28;19932;-77
2023/09/08 04:00:22;;;;;;;;;;;;;;;22.35;96.66;98202.22;5064185;28;19971;-77
2023/09/08 04:02:48;;;;;;;;;;;;;;;22.33;96.88;98193.59;5060680;28;19933;-78
2023/09/08 04:05:15;;;;;;;;;;;;;;;22.31;96.95;98195.84;5061136;28;19925;-78
2023/09/08 04:07:41;;;;;;;;;;;;;;;22.30;96.88;98191.56;5062252;28;20503;-78
2023/09/08 04:10:09;;;;;;;;;;;;;;;22.29;96.95;98191.88;5064840;28;19956;-78
2023/09/08 04:12:35;;;;;;;;;;;;;;;22.28;97.21;98195.75;5066042;28;20376;-78
2023/09/08 04:15:03;;;;;;;;;;;;;;;22.25;97.02;98191.72;5082571;28;19909;-78
2023/09/08 04:17:31;;;;;;;;;;;;;;;22.26;97.27;98203.41;5072350;28;19917;-77
2023/09/08 04:19:58;;;;;;;;;;;;;;;22.23;97.07;98207.59;5071403;28;19944;-77
2023/09/08 04:22:24;;;;;;;;;;;;;;;22.23;97.34;98210.31;5070921;28;19920;-77
2023/09/08 04:24:53;;;;;;;;;;;;;;;22.22;97.31;98203.28;5064047;28;19931;-77
2023/09/08 04:27:19;;;;;;;;;;;;;;;22.21;97.24;98204.44;5060902;28;19925;-77
2023/09/08 04:29:48;;;;;;;;;;;;;;;22.19;97.13;98209.38;5063363;28;19921;-77
2023/09/08 04:32:16;;;;;;;;;;;;;;;22.17;97.34;98206.22;5063920;28;19925;-77
2023/09/08 04:34:48;;;;;;;;;;;;;;;22.15;97.37;98208.47;5061727;28;19932;-77
2023/09/08 04:37:16;;;;;;;;;;;;;;;22.14;97.24;98206.88;5059393;28;19921;-77
2023/09/08 04:39:45;;;;;;;;;;;;;;;22.13;96.94;98212.66;5061305;28;19945;-77
2023/09/08 04:42:26;;;;;;;;;;;;;;;22.13;97.02;98209.94;5062514;28;19921;-76
2023/09/08 04:44:53;;;;;;;;;;;;;;;22.09;97.82;98217.16;5076305;28;19925;-77
2023/09/08 04:47:19;;;;;;;;;;;;;;;22.06;97.72;98221.34;5063175;28;19986;-76
2023/09/08 04:49:50;;;;;;;;;;;;;;;22.05;97.92;98214.28;5061608;28;19927;-76
2023/09/08 04:52:16;;;;;;;;;;;;;;;22.03;98.00;98220.03;5062394;28;19924;-77
2023/09/08 04:55:04;;;;;;;;;;;;;;;22.03;97.65;98216.56;5059961;28;19931;-77
2023/09/08 04:57:30;;;;;;;;;;;;;;;22.03;97.66;98219.28;5059371;28;19937;-77
2023/09/08 04:59:57;;;;;;;;;;;;;;;22.03;97.69;98219.28;5063347;28;19929;-77
2023/09/08 05:02:23;;;;;;;;;;;;;;;22.02;97.64;98229.34;5062027;28;19951;-78
2023/09/08 05:04:51;;;;;;;;;;;;;;;22.02;97.18;98231.28;5059903;28;19960;-78
2023/09/08 05:07:18;;;;;;;;;;;;;;;21.99;98.05;98232.72;5060090;28;19960;-78
2023/09/08 05:09:45;;;;;;;;;;;;;;;21.94;97.94;98235.63;5061378;28;19933;-78
2023/09/08 05:12:11;;;;;;;;;;;;;;;21.95;98.10;98239.94;5063396;28;19947;-78
2023/09/08 05:14:38;;;;;;;;;;;;;;;21.95;98.09;98236.44;5061460;28;19925;-78
2023/09/08 05:17:04;;;;;;;;;;;;;;;21.69;99.13;98236.56;5063664;28;19925;-78
2023/09/08 05:19:31;;;;;;;;;;;;;;;21.75;100.00;98235.25;5060369;28;19921;-77
2023/09/08 05:21:58;;;;;;;;;;;;;;;21.81;99.38;98246.72;5063244;28;19929;-77
2023/09/08 05:24:26;;;;;;;;;;;;;;;21.67;100.00;98237.97;5063107;28;19932;-77
2023/09/08 05:26:53;;;;;;;;;;;;;;;21.71;100.00;98233.50;5051341;28;19925;-77
2023/09/08 05:29:19;;;;;;;;;;;;;;;21.78;100.00;98240.03;5050497;28;19979;-78
2023/09/08 05:31:45;;;;;;;;;;;;;;;21.80;99.35;98237.75;5049958;28;19960;-76
2023/09/08 05:34:12;;;;;;;;;;;;;;;21.84;99.36;98237.91;5051498;28;19925;-77
2023/09/08 05:36:39;;;;;;;;;;;;;;;21.88;98.71;98249.72;5050843;28;19925;-77
2023/09/08 05:39:07;;;;;;;;;;;;;;;21.89;98.94;98254.84;5051991;28;19916;-77
2023/09/08 05:41:34;;;;;;;;;;;;;;;21.90;99.23;98250.22;5052123;28;19921;-78
2023/09/08 05:44:01;;;;;;;;;;;;;;;21.91;100.00;98246.38;5050430;28;19932;-77
2023/09/08 05:46:27;;;;;;;;;;;;;;;21.93;100.00;98250.38;5063560;28;20008;-77
2023/09/08 05:48:53;;;;;;;;;;;;;;;22.10;99.42;98254.88;5059429;28;19978;-77
2023/09/08 05:51:20;;;;;;;;;;;;;;;21.93;100.00;98255.81;5058174;28;19925;-77
2023/09/08 05:53:46;;;;;;;;;;;;;;;22.17;98.63;98257.09;5060876;28;19929;-77
2023/09/08 05:56:14;;;;;;;;;;;;;;;22.51;96.86;98254.94;5061363;28;19959;-77
2023/09/08 05:58:43;;;;;;;;;;;;;;;22.76;93.72;98255.06;5060357;28;19921;-76
2023/09/08 06:01:09;;;;;;;;;;;;;;;23.19;90.88;98260.91;5059124;28;19925;-77
2023/09/08 06:03:36;;;;;;;;;;;;;;;23.17;90.11;98257.72;5059060;28;19943;-77
2023/09/08 06:06:04;;;;;;;;;;;;;;;23.59;87.32;98255.69;5062010;28;19963;-77
2023/09/08 06:08:30;;;;;;;;;;;;;;;23.83;85.03;98255.69;5061852;28;19971;-77
2023/09/08 06:10:56;;;;;;;;;;;;;;;24.08;83.04;98257.25;5057339;28;19930;-77
2023/09/08 06:13:24;;;;;;;;;;;;;;;24.29;81.05;98256.38;5057261;28;19925;-77
2023/09/08 06:15:51;;;;;;;;;;;;;;;24.48;79.38;98254.59;5065648;28;19924;-77
2023/09/08 06:18:17;;;;;;;;;;;;;;;24.58;78.04;98248.66;5061056;28;19960;-77
2023/09/08 06:20:47;;;;;;;;;;;;;;;24.30;79.72;98252.50;5059568;28;19925;-77
2023/09/08 06:23:13;;;;;;;;;;;;;;;24.39;80.08;98253.94;5058803;28;19925;-77
2023/09/08 06:25:39;;;;;;;;;;;;;;;24.68;77.92;98248.19;5059337;28;19925;-78
2023/09/08 06:28:09;;;;;;;;;;;;;;;24.83;77.12;98245.88;5062529;28;19921;-77
2023/09/08 06:30:37;;;;;;;;;;;;;;;25.11;74.79;98249.41;5060019;28;19967;-78
2023/09/08 06:33:03;;;;;;;;;;;;;;;25.33;73.58;98251.56;5058926;28;19926;-78
2023/09/08 06:35:30;;;;;;;;;;;;;;;25.19;73.94;98257.44;5057853;28;19963;-78
2023/09/08 06:38:13;;;;;;;;;;;;;;;25.32;72.98;98244.50;5061142;28;19929;-79
2023/09/08 06:40:39;;;;;;;;;;;;;;;25.61;71.53;98246.84;5059362;28;19928;-79
2023/09/08 06:43:06;;;;;;;;;;;;;;;25.88;69.97;98247.06;5059265;28;19925;-79
2023/09/08 06:45:32;;;;;;;;;;;;;;;25.78;70.29;98253.88;5063803;28;19924;-78
2023/09/08 06:48:00;;;;;;;;;;;;;;;25.64;70.04;98256.28;5061373;28;19935;-78
2023/09/08 06:50:26;;;;;;;;;;;;;;;25.64;70.71;98259.81;5062000;28;20299;-78
2023/09/08 06:52:53;;;;;;;;;;;;;;;25.76;70.23;98265.19;5059437;28;20028;-78
2023/09/08 06:55:19;;;;;;;;;;;;;;;26.07;68.86;98260.81;5066013;28;19909;-78
2023/09/08 06:57:49;;;;;;;;;;;;;;;26.33;67.42;98258.34;5068898;28;19960;-78
2023/09/08 07:00:17;;;;;;;;;;;;;;;26.38;67.13;98257.25;5069053;28;19936;-78
2023/09/08 07:02:43;;;;;;;;;;;;;;;26.40;67.16;98261.22;5061924;28;20282;-78
2023/09/08 07:05:11;;;;;;;;;;;;;;;26.35;66.97;98247.81;5056982;28;19925;-78
2023/09/08 07:07:38;;;;;;;;;;;;;;;26.38;66.87;98252.56;5059900;28;19925;-78
2023/09/08 07:10:04;;;;;;;;;;;;;;;26.19;67.81;98250.59;5061440;28;19932;-79
2023/09/08 07:12:31;;;;;;;;;;;;;;;26.20;68.48;98251.41;5059863;28;19948;-78
2023/09/08 07:14:58;;;;;;;;;;;;;;;25.99;68.89;98253.63;5057011;28;19948;-77
2023/09/08 07:17:24;;;;;;;;;;;;;;;25.91;69.93;98251.84;5060364;28;19925;-77
2023/09/08 07:19:57;;;;;;;;;;;;;;;25.75;70.55;98252.66;5061294;28;19970;-77
2023/09/08 07:22:26;;;;;;;;;;;;;;;25.41;72.26;98253.31;5059921;28;19951;-78
2023/09/08 07:24:52;;;;;;;;;;;;;;;25.13;75.33;98252.56;5048821;28;19926;-78
2023/09/08 07:27:20;;;;;;;;;;;;;;;25.05;76.61;98259.00;5052977;28;19929;-78
2023/09/08 07:29:47;;;;;;;;;;;;;;;24.94;77.20;98260.66;5052648;28;20612;-78
2023/09/08 07:32:15;;;;;;;;;;;;;;;24.60;80.08;98265.50;5053527;28;19925;-78
2023/09/08 07:34:42;;;;;;;;;;;;;;;24.45;81.72;98258.03;5054500;28;19925;-78
2023/09/08 07:37:08;;;;;;;;;;;;;;;24.08;85.12;98257.25;5056090;28;19947;-78
2023/09/08 07:39:36;;;;;;;;;;;;;;;23.92;86.56;98258.31;5070176;28;19925;-77
2023/09/08 07:42:14;;;;;;;;;;;;;;;23.70;88.97;98245.94;5054601;28;19909;-78
2023/09/08 07:44:43;;;;;;;;;;;;;;;23.82;88.54;98254.09;5054596;28;19932;-77
2023/09/08 07:47:09;;;;;;;;;;;;;;;23.93;87.49;98248.97;5056996;28;19929;-77
2023/09/08 07:49:51;;;;;;;;;;;;;;;23.93;86.98;98246.25;5061977;28;19956;-78
2023/09/08 07:52:17;;;;;;;;;;;;;;;23.89;85.71;98248.09;5063649;28;19960;-78
2023/09/08 07:54:47;;;;;;;;;;;;;;;23.77;83.64;98250.81;5062770;28;19925;-78
2023/09/08 07:57:14;;;;;;;;;;;;;;;23.76;87.74;98251.94;5059894;28;19925;-78
2023/09/08 07:59:40;;;;;;;;;;;;;;;23.65;84.47;98243.41;5062860;28;19932;-78
2023/09/08 08:02:10;;;;;;;;;;;;;;;23.58;86.14;98257.59;5063317;28;20001;-78
2023/09/08 08:04:37;;;;;;;;;;;;;;;23.54;85.80;98251.25;5062818;28;19979;-78
2023/09/08 08:07:03;;;;;;;;;;;;;;;23.61;86.76;98248.75;5060813;28;19960;-78
2023/09/08 08:09:29;;;;;;;;;;;;;;;23.63;85.35;98242.97;5061220;28;19925;-78
2023/09/08 08:11:57;;;;;;;;;;;;;;;23.69;83.04;98247.06;5063689;28;19920;-77
2023/09/08 08:14:24;;;;;;;;;;;;;;;23.47;81.95;98242.84;5063598;28;19929;-77
2023/09/08 08:16:50;;;;;;;;;;;;;;;23.38;82.65;98242.09;5055864;28;19925;-77
2023/09/08 08:19:16;;;;;;;;;;;;;;;23.43;83.59;98241.91;5059646;28;19925;-77
2023/09/08 08:24:23;;;;;;;;;;;;;;;22.93;76.80;98244.03;5064213;28;20027;-78
2023/09/08 08:26:51;;;;;;;;;;;;;;;23.00;78.99;98247.00;5059833;28;19921;-78
2023/09/08 08:29:19;;;;;;;;;;;;;;;22.96;74.72;98243.38;5061268;28;19984;-78
2023/09/08 08:31:46;;;;;;;;;;;;;;;22.94;75.67;98242.88;5062865;28;20013;-78
2023/09/08 08:34:12;;;;;;;;;;;;;;;22.98;79.36;98241.91;5066492;28;19931;-78
2023/09/08 08:36:39;;;;;;;;;;;;;;;23.06;75.68;98237.47;5067519;28;19913;-78
2023/09/08 08:39:05;;;;;;;;;;;;;;;23.09;77.26;98239.53;5065576;28;19925;-78
2023/09/08 08:41:34;;;;;;;;;;;;;;;23.16;81.95;98239.78;5068009;28;19939;-78
2023/09/08 08:44:00;;;;;;;;;;;;;;;23.07;74.13;98239.09;5070400;28;19996;-77
2023/09/08 08:46:28;;;;;;;;;;;;;;;23.04;73.66;98228.84;5071574;28;19925;-78
2023/09/08 08:48:55;;;;;;;;;;;;;;;23.14;74.45;98231.16;5060398;28;19929;-78
2023/09/08 08:51:23;;;;;;;;;;;;;;;23.08;67.41;98237.97;5059865;28;19925;-78
2023/09/08 08:53:56;;;;;;;;;;;;;;;23.07;67.53;98231.72;5063914;28;20023;-78
2023/09/08 08:56:23;;;;;;;;;;;;;;;23.05;68.53;98233.19;5063357;28;20059;-78
2023/09/08 08:58:49;;;;;;;;;;;;;;;23.04;67.75;98235.09;5060590;28;19925;-78
2023/09/08 09:01:17;;;;;;;;;;;;;;;23.13;67.35;98229.56;5062694;28;19921;-78
2023/09/08 09:03:59;;;;;;;;;;;;;;;23.15;68.08;98235.47;5071430;28;19925;-78
2023/09/08 09:06:25;;;;;;;;;;;;;;;23.18;67.87;98234.78;5063984;28;19921;-78
2023/09/08 09:08:52;;;;;;;;;;;;;;;23.16;66.51;98234.34;5062687;28;20533;-79
2023/09/08 09:11:18;;;;;;;;;;;;;;;23.21;67.81;98233.34;5060669;28;19948;-78
2023/09/08 09:13:44;;;;;;;;;;;;;;;23.31;68.07;98238.34;5063676;28;19921;-78
2023/09/08 09:18:55;;;;;;;;;;;;;;;23.57;67.74;98231.50;5060588;28;19925;-78
2023/09/08 09:21:23;;;;;;;;;;;;;;;23.47;62.32;98236.56;5059731;28;19925;-78
2023/09/08 09:23:49;;;;;;;;;;;;;;;23.54;62.62;98236.81;5061568;28;19956;-78
2023/09/08 09:26:25;;;;;;;;;;;;;;;23.62;62.20;98233.97;5063263;28;19963;-78
2023/09/08 09:28:53;;;;;;;;;;;;;;;23.77;62.19;98237.19;5059681;28;19925;-78
2023/09/08 09:31:23;;;;;;;;;;;;;;;23.69;61.05;98232.63;5060411;28;19984;-78
2023/09/08 09:34:01;;;;;;;;;;;;;;;23.82;60.77;98236.94;5062759;28;19948;-79
2023/09/08 09:36:28;;;;;;;;;;;;;;;23.90;59.98;98231.38;5061207;28;19928;-77
2023/09/08 09:38:58;;;;;;;;;;;;;;;23.94;60.22;98228.75;5057919;28;19984;-77
2023/09/08 09:41:24;;;;;;;;;;;;;;;23.96;60.06;98232.72;5057835;28;19921;-78
2023/09/08 09:43:51;;;;;;;;;;;;;;;23.98;60.54;98232.41;5062321;28;20040;-77
2023/09/08 09:46:35;;;;;;;;;;;;;;;24.10;60.10;98226.94;5066233;28;19925;-78
2023/09/08 09:49:02;;;;;;;;;;;;;;;24.21;59.84;98221.81;5059526;28;19932;-78
2023/09/08 09:51:30;;;;;;;;;;;;;;;24.07;59.65;98227.63;5061150;28;19925;-77
2023/09/08 09:53:58;;;;;;;;;;;;;;;24.40;59.65;98225.53;5064326;28;19925;-78
2023/09/08 09:56:25;;;;;;;;;;;;;;;24.65;59.05;98221.56;5062232;28;19956;-78
2023/09/08 09:58:53;;;;;;;;;;;;;;;24.58;59.69;98223.28;5059521;28;19993;-78
2023/09/08 10:07:21;;;;;;;;;;;;;;;24.50;58.67;98227.78;5121739;27;19976;-66
2023/09/08 10:09:48;;;;;;;;;;;;;;;24.95;57.61;98230.22;5116858;28;19957;-67
2023/09/08 10:12:16;;;;;;;;;;;;;;;24.65;58.06;98228.97;5116903;28;19924;-67
2023/09/08 10:14:43;;;;;;;;;;;;;;;24.46;58.33;98223.34;5118773;28;19924;-66
2023/09/08 10:17:12;;;;;;;;;;;;;;;24.32;59.04;98221.00;5109936;28;19954;-66
2023/09/08 10:19:41;;;;;;;;;;;;;;;25.22;57.76;98213.00;5118458;28;19924;-66
2023/09/08 10:22:10;;;;;;;;;;;;;;;25.03;58.24;98212.91;5120466;28;19928;-66
2023/09/08 10:24:39;;;;;;;;;;;;;;;24.73;58.76;98209.69;5118905;28;19928;-66
2023/09/08 10:27:08;;;;;;;;;;;;;;;24.84;59.29;98207.31;5115477;28;19924;-66
2023/09/08 10:29:35;;;;;;;;;;;;;;;25.14;58.97;98207.69;5117802;28;19931;-66
2023/09/08 10:32:02;;;;;;;;;;;;;;;25.34;58.71;98203.94;5120172;28;19928;-66
2023/09/08 10:34:29;;;;;;;;;;;;;;;25.88;57.44;98203.28;5119777;28;19924;-66
2023/09/08 10:36:56;;;;;;;;;;;;;;;26.56;55.99;98204.44;5116393;28;19935;-66
2023/09/08 10:39:30;;;;;;;;;;;;;;;26.96;54.34;98203.28;5116396;28;19924;-67
2023/09/08 10:42:11;;;;;;;;;;;;;;;26.37;52.73;98206.41;5116465;28;19931;-67
2023/09/08 10:44:40;;;;;;;;;;;;;;;25.97;53.47;98209.38;5118761;28;19983;-67
2023/09/08 10:47:07;;;;;;;;;;;;;;;25.76;54.74;98187.78;5109722;28;19928;-66
2023/09/08 10:49:36;;;;;;;;;;;;;;;25.92;53.82;98194.03;5116966;28;19947;-66
2023/09/08 10:52:06;;;;;;;;;;;;;;;26.08;53.72;98202.22;5119865;28;19950;-66
2023/09/08 10:54:42;;;;;;;;;;;;;;;25.81;51.94;98195.72;5100318;22;19925;-78
2023/09/08 10:57:13;;;;;;;;;;;;;;;25.64;52.51;98190.63;5074840;28;19984;-78
2023/09/08 10:59:41;;;;;;;;;;;;;;;25.80;52.17;98193.34;5076766;28;19948;-78
2023/09/08 11:02:08;;;;;;;;;;;;;;;26.46;51.68;98183.09;5078408;28;20015;-78
2023/09/08 11:04:35;;;;;;;;;;;;;;;26.12;51.24;98183.94;5059341;28;19924;-78
2023/09/08 11:07:02;;;;;;;;;;;;;;;26.45;51.43;98186.22;5074926;28;19925;-78
2023/09/08 11:09:28;;;;;;;;;;;;;;;27.01;50.26;98192.03;5074879;28;19952;-78
2023/09/08 11:11:55;;;;;;;;;;;;;;;26.71;49.58;98178.91;5060049;28;19948;-78
2023/09/08 11:14:21;;;;;;;;;;;;;;;26.64;50.71;98183.47;5078386;28;19924;-78
2023/09/08 11:16:49;;;;;;;;;;;;;;;26.20;50.09;98185.69;5050838;28;19937;-78
2023/09/08 11:19:15;;;;;;;;;;;;;;;26.01;49.63;98185.63;5060819;28;19943;-78
2023/09/08 11:21:42;;;;;;;;;;;;;;;25.86;49.25;98178.25;5066711;28;19949;-77
2023/09/08 11:24:09;;;;;;;;;;;;;;;25.77;49.22;98184.72;5071700;28;19939;-77
2023/09/08 11:26:36;;;;;;;;;;;;;;;26.14;50.09;98181.63;5053197;28;19921;-78
2023/09/08 11:29:02;;;;;;;;;;;;;;;26.18;49.84;98174.31;5067828;28;19928;-78
2023/09/08 11:31:28;;;;;;;;;;;;;;;26.17;50.29;98180.94;5063883;28;19960;-78
2023/09/08 11:33:58;;;;;;;;;;;;;;;26.25;50.56;98188.13;5046555;28;19925;-78
2023/09/08 11:36:24;;;;;;;;;;;;;;;26.39;50.70;98169.28;5064253;28;19925;-78
2023/09/08 11:38:50;;;;;;;;;;;;;;;26.20;50.29;98175.53;5060917;28;19971;-78
2023/09/08 11:41:17;;;;;;;;;;;;;;;26.08;49.83;98172.91;5061833;28;19925;-78
2023/09/08 11:43:44;;;;;;;;;;;;;;;26.34;50.57;98168.78;5064142;28;19929;-78
2023/09/08 11:46:11;;;;;;;;;;;;;;;26.51;50.80;98171.06;5045575;28;20148;-78
2023/09/08 11:51:23;;;;;;;;;;;;;;;26.42;51.06;98168.56;5060015;28;19937;-79
2023/09/08 11:53:49;;;;;;;;;;;;;;;26.44;49.91;98165.44;5064323;28;19971;-78
2023/09/08 11:56:16;;;;;;;;;;;;;;;26.24;50.52;98165.44;5064264;28;19921;-78
2023/09/08 11:58:42;;;;;;;;;;;;;;;26.27;50.31;98167.44;5063030;28;19924;-78
2023/09/08 12:01:09;;;;;;;;;;;;;;;26.25;50.14;98177.19;5042689;28;19926;-78
2023/09/08 12:03:51;;;;;;;;;;;;;;;26.20;50.67;98159.09;5044015;28;19988;-78
2023/09/08 12:06:17;;;;;;;;;;;;;;;26.43;50.93;98166.63;5063932;28;20000;-78
2023/09/08 12:08:45;;;;;;;;;;;;;;;26.49;50.92;98165.94;5044177;28;19936;-78
2023/09/08 12:11:12;;;;;;;;;;;;;;;26.30;50.57;98161.25;5059397;28;19989;-78
2023/09/08 12:13:40;;;;;;;;;;;;;;;26.33;50.54;98159.75;5044459;28;19996;-78
2023/09/08 12:16:18;;;;;;;;;;;;;;;26.38;51.12;98148.50;5044736;28;19932;-78
2023/09/08 12:18:48;;;;;;;;;;;;;;;26.72;50.98;98164.06;5060475;28;19936;-78
2023/09/08 12:21:14;;;;;;;;;;;;;;;26.69;51.14;98156.56;5060491;28;19964;-78
2023/09/08 12:23:49;;;;;;;;;;;;;;;26.44;51.75;98162.69;5062029;28;19921;-78
2023/09/08 12:26:17;;;;;;;;;;;;;;;26.43;51.67;98158.41;5063787;28;20012;-78
2023/09/08 12:28:43;;;;;;;;;;;;;;;26.38;51.43;98162.19;5060456;28;19932;-80
2023/09/08 12:31:13;;;;;;;;;;;;;;;26.40;52.07;98157.16;5041895;28;19921;-78
2023/09/08 12:36:59;;;;;;;;;;;;;;;26.57;51.65;98151.25;5125149;27;19984;-67
2023/09/08 12:39:25;;;;;;;;;;;;;;;26.64;50.96;98145.91;5116681;28;19928;-67
2023/09/08 12:41:51;;;;;;;;;;;;;;;26.74;52.22;98142.56;5117008;28;20512;-67
2023/09/08 12:44:18;;;;;;;;;;;;;;;26.66;51.10;98146.34;5116924;28;19924;-67
2023/09/08 12:46:44;;;;;;;;;;;;;;;26.69;52.29;98144.81;5153732;22;19923;-79
2023/09/08 12:49:11;;;;;;;;;;;;;;;26.72;51.67;98144.88;5116808;28;19947;-79
2023/09/08 12:51:37;;;;;;;;;;;;;;;26.83;51.20;98138.84;5116931;28;19925;-79
2023/09/08 12:54:05;;;;;;;;;;;;;;;26.83;51.46;98136.91;5120206;28;19951;-79
2023/09/08 12:56:31;;;;;;;;;;;;;;;26.85;51.52;98142.00;5119546;28;19924;-79
2023/09/08 12:58:58;;;;;;;;;;;;;;;26.95;50.21;98138.66;5115843;28;19932;-79
2023/09/08 13:01:24;;;;;;;;;;;;;;;26.90;51.65;98141.69;5115687;28;19924;-79
2023/09/08 13:04:01;;;;;;;;;;;;;;;26.96;51.16;98140.25;5119771;28;19924;-80
2023/09/08 13:06:43;;;;;;;;;;;;;;;26.90;50.63;98128.78;5119559;28;19923;-80
2023/09/08 13:09:32;;;;;;;;;;;;;;;26.95;50.76;98133.19;5117560;28;19920;-79
2023/09/08 13:12:05;;;;;;;;;;;;;;;27.04;50.38;98131.00;5112672;28;19928;-79
2023/09/08 13:14:32;;;;;;;;;;;;;;;26.90;49.95;98131.53;5119116;28;19931;-79